Time;durP1;ratioP1;P1;durP2;ratioP2;P2;SDS_P1;SDS_P2;PMS_P1;PMS_P2;Temp;Humidity;BMP_temperature;BMP_pressure;BME280_temperature;BME280_humidity;BME280_pressure;Samples;Min_cycle;Max_cycle;Signal;HPM_P1;HPM_P2
2023/08/19 00:01:12;;;;;;;6.57;3.97;;;;;;;;;;5039571;28;20037;-76
2023/08/19 00:03:38;;;;;;;8.40;4.20;;;;;;;;;;5024612;28;20037;-76
2023/08/19 00:06:05;;;;;;;14.32;4.05;;;;;;;;;;5023932;28;20036;-75
2023/08/19 00:08:31;;;;;;;9.20;4.45;;;;;;;;;;5024352;28;20112;-76
2023/08/19 00:10:57;;;;;;;12.50;4.07;;;;;;;;;;5024812;28;20458;-76
2023/08/19 00:13:23;;;;;;;8.52;4.07;;;;;;;;;;5024886;28;20041;-76
2023/08/19 00:15:54;;;;;;;9.50;4.40;;;;;;;;;;5024444;28;20025;-76
2023/08/19 00:18:20;;;;;;;8.13;3.75;;;;;;;;;;5024539;28;20030;-76
2023/08/19 00:20:46;;;;;;;7.80;3.90;;;;;;;;;;5024570;28;20041;-75
2023/08/19 00:23:12;;;;;;;9.68;4.05;;;;;;;;;;5024397;28;20362;-76
2023/08/19 00:25:38;;;;;;;10.85;3.95;;;;;;;;;;5023768;28;20103;-76
2023/08/19 00:28:04;;;;;;;13.45;3.83;;;;;;;;;;5024328;28;20450;-75
2023/08/19 00:30:30;;;;;;;12.45;3.75;;;;;;;;;;5024465;28;20061;-76
2023/08/19 00:32:56;;;;;;;7.60;3.58;;;;;;;;;;5023669;28;20544;-76
2023/08/19 00:35:25;;;;;;;10.52;4.13;;;;;;;;;;5031740;28;20108;-74
2023/08/19 00:37:53;;;;;;;9.13;4.32;;;;;;;;;;5042086;28;20093;-76
2023/08/19 00:40:21;;;;;;;9.15;3.80;;;;;;;;;;5027487;28;20029;-74
2023/08/19 00:42:47;;;;;;;6.75;3.72;;;;;;;;;;5031780;28;20040;-76
2023/08/19 00:45:13;;;;;;;5.68;3.38;;;;;;;;;;5024114;28;20026;-75
2023/08/19 00:47:42;;;;;;;7.40;3.97;;;;;;;;;;5023866;28;20033;-76
2023/08/19 00:50:10;;;;;;;5.45;4.10;;;;;;;;;;5027547;28;20120;-75
2023/08/19 00:52:37;;;;;;;8.43;3.53;;;;;;;;;;5030109;28;20119;-75
2023/08/19 00:55:06;;;;;;;7.43;3.92;;;;;;;;;;5027941;28;20151;-74
2023/08/19 00:57:37;;;;;;;6.45;3.58;;;;;;;;;;5024034;28;20021;-75
2023/08/19 01:00:04;;;;;;;11.55;3.65;;;;;;;;;;5022648;28;20128;-75
2023/08/19 01:02:32;;;;;;;8.68;4.28;;;;;;;;;;5023844;28;20040;-73
2023/08/19 01:04:58;;;;;;;9.30;3.28;;;;;;;;;;5029630;28;20128;-76
2023/08/19 01:07:28;;;;;;;5.28;3.78;;;;;;;;;;5036243;28;20118;-75
2023/08/19 01:10:06;;;;;;;17.35;4.85;;;;;;;;;;5040308;28;20033;-75
2023/08/19 01:12:39;;;;;;;8.18;3.17;;;;;;;;;;5039064;28;20045;-76
2023/08/19 01:15:22;;;;;;;5.68;3.72;;;;;;;;;;5028677;28;20029;-76
2023/08/19 01:17:52;;;;;;;8.85;3.80;;;;;;;;;;5039200;28;20026;-76
2023/08/19 01:20:20;;;;;;;5.97;3.67;;;;;;;;;;5028251;28;20018;-75
2023/08/19 01:22:57;;;;;;;7.25;3.75;;;;;;;;;;5036379;28;20022;-76
2023/08/19 01:25:23;;;;;;;11.43;3.97;;;;;;;;;;5039377;28;20055;-75
2023/08/19 01:27:52;;;;;;;6.38;4.18;;;;;;;;;;5041084;28;20033;-77
2023/08/19 01:30:18;;;;;;;8.07;3.45;;;;;;;;;;5056157;28;20030;-76
2023/08/19 01:32:44;;;;;;;5.60;3.67;;;;;;;;;;5039780;28;20104;-76
2023/08/19 01:35:10;;;;;;;8.85;3.65;;;;;;;;;;5043108;28;20348;-75
2023/08/19 01:37:36;;;;;;;12.85;3.75;;;;;;;;;;5024027;28;20029;-76
2023/08/19 01:40:04;;;;;;;8.93;3.72;;;;;;;;;;5038497;28;20041;-76
2023/08/19 01:42:31;;;;;;;7.78;3.60;;;;;;;;;;5038877;28;20697;-76
2023/08/19 01:45:00;;;;;;;7.70;3.45;;;;;;;;;;5030960;28;20064;-76
2023/08/19 01:47:28;;;;;;;6.30;3.60;;;;;;;;;;5022937;28;20030;-76
2023/08/19 01:49:54;;;;;;;6.15;3.55;;;;;;;;;;5023786;28;21697;-76
2023/08/19 01:52:20;;;;;;;6.70;3.80;;;;;;;;;;5025343;28;20123;-75
2023/08/19 01:54:46;;;;;;;7.25;3.65;;;;;;;;;;5026130;28;20026;-74
2023/08/19 01:57:12;;;;;;;11.57;3.97;;;;;;;;;;5027006;28;20029;-76
2023/08/19 01:59:38;;;;;;;6.03;3.45;;;;;;;;;;5043041;28;20331;-74
2023/08/19 02:02:04;;;;;;;6.47;3.60;;;;;;;;;;5042791;28;20088;-74
2023/08/19 02:04:30;;;;;;;8.55;3.30;;;;;;;;;;5027338;28;20025;-76
2023/08/19 02:06:57;;;;;;;8.63;4.20;;;;;;;;;;5026456;28;20945;-75
2023/08/19 02:09:23;;;;;;;7.70;3.90;;;;;;;;;;5035220;28;20037;-73
2023/08/19 02:11:49;;;;;;;6.40;2.92;;;;;;;;;;5025271;28;20041;-76
2023/08/19 02:14:15;;;;;;;7.00;4.05;;;;;;;;;;5022552;28;20454;-75
2023/08/19 02:16:43;;;;;;;12.15;3.55;;;;;;;;;;5022294;28;20034;-76
2023/08/19 02:19:09;;;;;;;7.70;3.88;;;;;;;;;;5037665;28;20029;-76
2023/08/19 02:21:35;;;;;;;11.68;4.13;;;;;;;;;;5022625;28;20370;-75
2023/08/19 02:24:01;;;;;;;7.90;3.20;;;;;;;;;;5022205;28;20037;-76
2023/08/19 02:26:27;;;;;;;12.27;3.85;;;;;;;;;;5032326;28;20128;-75
2023/08/19 02:28:53;;;;;;;6.70;3.05;;;;;;;;;;5026291;28;20601;-74
2023/08/19 02:31:19;;;;;;;7.65;3.40;;;;;;;;;;5026100;28;20100;-76
2023/08/19 02:33:48;;;;;;;9.70;3.60;;;;;;;;;;5041595;28;20026;-75
2023/08/19 02:36:14;;;;;;;3.97;2.83;;;;;;;;;;5027043;28;20057;-76
2023/08/19 02:38:40;;;;;;;5.03;3.22;;;;;;;;;;5034266;28;20030;-76
2023/08/19 02:41:06;;;;;;;7.07;3.70;;;;;;;;;;5041329;28;20029;-76
2023/08/19 02:43:32;;;;;;;7.00;3.45;;;;;;;;;;5054212;28;20044;-75
2023/08/19 02:45:58;;;;;;;6.00;3.17;;;;;;;;;;5040295;28;20029;-75
2023/08/19 02:48:24;;;;;;;8.85;3.25;;;;;;;;;;5044498;28;20033;-76
2023/08/19 02:50:55;;;;;;;7.28;3.60;;;;;;;;;;5028573;28;20036;-75
2023/08/19 02:53:24;;;;;;;8.32;3.15;;;;;;;;;;5042305;28;20061;-76
2023/08/19 02:55:52;;;;;;;6.13;3.10;;;;;;;;;;5026178;28;20056;-76
2023/08/19 02:58:21;;;;;;;11.52;3.60;;;;;;;;;;5040930;28;20457;-75
2023/08/19 03:00:50;;;;;;;7.15;3.83;;;;;;;;;;5025653;28;20378;-75
2023/08/19 03:03:16;;;;;;;10.68;3.80;;;;;;;;;;5025448;28;20036;-76
2023/08/19 03:05:44;;;;;;;11.93;4.43;;;;;;;;;;5032239;28;20387;-75
2023/08/19 03:08:11;;;;;;;9.13;3.88;;;;;;;;;;5025306;28;20029;-76
2023/08/19 03:10:37;;;;;;;5.32;3.10;;;;;;;;;;5025849;28;20029;-76
2023/08/19 03:13:04;;;;;;;8.38;3.78;;;;;;;;;;5028473;28;20029;-73
2023/08/19 03:15:30;;;;;;;5.32;2.80;;;;;;;;;;5028093;28;20029;-74
2023/08/19 03:17:56;;;;;;;10.45;3.67;;;;;;;;;;5027933;28;20377;-76
2023/08/19 03:20:22;;;;;;;6.28;2.83;;;;;;;;;;5037338;28;20080;-75
2023/08/19 03:22:48;;;;;;;6.32;3.35;;;;;;;;;;5042006;28;20397;-75
2023/08/19 03:25:14;;;;;;;7.53;3.22;;;;;;;;;;5026265;28;20026;-76
2023/08/19 03:27:40;;;;;;;3.97;2.92;;;;;;;;;;5028801;28;20033;-75
2023/08/19 03:30:09;;;;;;;6.78;3.03;;;;;;;;;;5040944;28;20056;-75
2023/08/19 03:32:35;;;;;;;11.60;3.80;;;;;;;;;;5034218;28;20331;-76
2023/08/19 03:35:03;;;;;;;6.07;3.22;;;;;;;;;;5033051;28;20129;-75
2023/08/19 03:37:29;;;;;;;5.30;3.00;;;;;;;;;;5024916;28;20029;-76
2023/08/19 03:39:55;;;;;;;7.68;3.00;;;;;;;;;;5033892;28;20480;-75
2023/08/19 03:42:21;;;;;;;6.68;3.40;;;;;;;;;;5024330;28;20029;-76
2023/08/19 03:44:47;;;;;;;6.38;3.50;;;;;;;;;;5025718;28;20034;-76
2023/08/19 03:47:13;;;;;;;5.47;3.65;;;;;;;;;;5024743;28;20021;-75
2023/08/19 03:49:40;;;;;;;3.95;2.95;;;;;;;;;;5025014;28;20035;-76
2023/08/19 03:52:06;;;;;;;5.55;3.10;;;;;;;;;;5025977;28;20030;-75
2023/08/19 03:54:32;;;;;;;5.40;2.90;;;;;;;;;;5024724;28;20025;-76
2023/08/19 03:57:01;;;;;;;7.65;3.08;;;;;;;;;;5040674;28;20120;-76
2023/08/19 03:59:27;;;;;;;4.75;2.92;;;;;;;;;;5025133;28;20039;-75
2023/08/19 04:01:53;;;;;;;5.82;3.30;;;;;;;;;;5025341;28;20361;-76
2023/08/19 04:04:22;;;;;;;5.78;2.72;;;;;;;;;;5025077;28;20041;-76
2023/08/19 04:06:50;;;;;;;10.20;2.75;;;;;;;;;;5024441;28;20596;-75
2023/08/19 04:09:18;;;;;;;10.13;3.28;;;;;;;;;;5024457;28;20037;-76
2023/08/19 04:11:44;;;;;;;8.05;3.30;;;;;;;;;;5023898;28;20489;-76
2023/08/19 04:14:11;;;;;;;5.88;2.83;;;;;;;;;;5024624;28;20029;-76
2023/08/19 04:16:37;;;;;;;12.02;3.03;;;;;;;;;;5025131;28;20075;-76
2023/08/19 04:19:03;;;;;;;7.05;3.15;;;;;;;;;;5025150;28;20033;-76
2023/08/19 04:21:29;;;;;;;17.75;3.58;;;;;;;;;;5024359;28;20029;-76
2023/08/19 04:23:55;;;;;;;4.93;2.95;;;;;;;;;;5024559;28;20681;-76
2023/08/19 04:26:24;;;;;;;8.88;3.08;;;;;;;;;;5023938;28;20048;-76
2023/08/19 04:28:52;;;;;;;7.60;3.03;;;;;;;;;;5024370;28;20036;-74
2023/08/19 04:31:18;;;;;;;8.02;2.92;;;;;;;;;;5023081;28;20117;-74
2023/08/19 04:33:44;;;;;;;8.10;3.00;;;;;;;;;;5024826;28;20030;-75
2023/08/19 04:36:11;;;;;;;5.00;2.80;;;;;;;;;;5024248;28;20033;-75
2023/08/19 04:38:36;;;;;;;10.80;2.95;;;;;;;;;;5023877;28;20040;-75
2023/08/19 04:41:03;;;;;;;7.00;3.08;;;;;;;;;;5023909;28;20167;-74
2023/08/19 04:43:29;;;;;;;7.68;3.22;;;;;;;;;;5024103;28;20099;-75
2023/08/19 04:45:55;;;;;;;9.75;3.22;;;;;;;;;;5031828;28;20026;-75
2023/08/19 04:48:24;;;;;;;7.35;3.13;;;;;;;;;;5022750;28;20848;-74
2023/08/19 04:50:52;;;;;;;6.80;2.65;;;;;;;;;;5039229;28;20422;-76
2023/08/19 04:53:20;;;;;;;6.90;2.58;;;;;;;;;;5032209;28;20029;-75
2023/08/19 04:55:46;;;;;;;7.18;2.65;;;;;;;;;;5023229;28;20036;-76
2023/08/19 04:58:12;;;;;;;9.82;2.97;;;;;;;;;;5023626;28;20033;-76
2023/08/19 05:00:38;;;;;;;7.60;3.40;;;;;;;;;;5023651;28;20079;-76
2023/08/19 05:03:04;;;;;;;10.00;2.92;;;;;;;;;;5023766;28;20618;-74
2023/08/19 05:05:30;;;;;;;8.32;2.80;;;;;;;;;;5024070;28;20091;-74
2023/08/19 05:07:59;;;;;;;8.02;2.97;;;;;;;;;;5024141;28;20037;-76
2023/08/19 05:10:25;;;;;;;4.03;2.50;;;;;;;;;;5023560;28;20134;-75
2023/08/19 05:12:51;;;;;;;6.40;2.83;;;;;;;;;;5022696;28;20699;-76
2023/08/19 05:15:17;;;;;;;7.88;2.55;;;;;;;;;;5023620;28;20021;-76
2023/08/19 05:17:43;;;;;;;2.88;2.28;;;;;;;;;;5023160;28;20039;-76
2023/08/19 05:20:09;;;;;;;7.38;2.88;;;;;;;;;;5023319;28;20025;-75
2023/08/19 05:22:35;;;;;;;9.15;2.72;;;;;;;;;;5023277;28;20465;-75
2023/08/19 05:25:02;;;;;;;4.28;2.90;;;;;;;;;;5023671;28;20048;-75
2023/08/19 05:27:28;;;;;;;4.07;2.50;;;;;;;;;;5031506;28;20103;-75
2023/08/19 05:29:54;;;;;;;8.63;2.88;;;;;;;;;;5026988;28;20484;-77
2023/08/19 05:32:20;;;;;;;5.95;2.75;;;;;;;;;;5032265;28;20033;-75
2023/08/19 05:34:46;;;;;;;12.40;3.13;;;;;;;;;;5026124;28;21732;-75
2023/08/19 05:37:12;;;;;;;8.85;2.80;;;;;;;;;;5023204;28;20025;-76
2023/08/19 05:39:38;;;;;;;7.28;2.83;;;;;;;;;;5030848;28;20530;-75
2023/08/19 05:42:07;;;;;;;9.35;3.35;;;;;;;;;;5023286;28;20719;-75
2023/08/19 05:44:33;;;;;;;8.32;3.35;;;;;;;;;;5023570;28;20036;-75
2023/08/19 05:46:59;;;;;;;7.70;2.78;;;;;;;;;;5022566;28;20119;-76
2023/08/19 05:49:25;;;;;;;6.97;2.60;;;;;;;;;;5023068;28;20037;-76
2023/08/19 05:51:51;;;;;;;6.28;2.72;;;;;;;;;;5022733;28;20516;-74
2023/08/19 05:54:17;;;;;;;5.32;3.00;;;;;;;;;;5038483;28;20041;-76
2023/08/19 05:56:43;;;;;;;5.97;2.80;;;;;;;;;;5022659;28;20026;-76
2023/08/19 05:59:09;;;;;;;5.90;2.60;;;;;;;;;;5022218;28;20033;-77
2023/08/19 06:01:35;;;;;;;5.65;2.67;;;;;;;;;;5038135;28;20560;-76
2023/08/19 06:04:01;;;;;;;10.32;2.72;;;;;;;;;;5021882;28;20034;-76
2023/08/19 06:06:27;;;;;;;4.20;2.33;;;;;;;;;;5030254;28;20087;-76
2023/08/19 06:08:53;;;;;;;9.00;3.38;;;;;;;;;;5021787;28;20032;-76
2023/08/19 06:11:19;;;;;;;6.88;2.63;;;;;;;;;;5022162;28;20057;-76
2023/08/19 06:13:45;;;;;;;4.80;2.83;;;;;;;;;;5022319;28;20033;-76
2023/08/19 06:16:11;;;;;;;4.78;2.92;;;;;;;;;;5022742;28;20690;-74
2023/08/19 06:18:37;;;;;;;5.18;2.63;;;;;;;;;;5038622;28;20033;-77
2023/08/19 06:21:03;;;;;;;8.07;2.80;;;;;;;;;;5022532;28;20033;-76
2023/08/19 06:23:30;;;;;;;10.13;3.15;;;;;;;;;;5022608;28;20034;-77
2023/08/19 06:25:56;;;;;;;6.15;2.75;;;;;;;;;;5022268;28;20059;-76
2023/08/19 06:28:22;;;;;;;11.25;3.08;;;;;;;;;;5022049;28;20044;-76
2023/08/19 06:30:49;;;;;;;6.47;3.22;;;;;;;;;;5038310;28;20639;-76
2023/08/19 06:33:16;;;;;;;18.85;3.70;;;;;;;;;;5038199;28;20034;-78
2023/08/19 06:35:47;;;;;;;11.77;3.33;;;;;;;;;;5021773;28;20358;-75
2023/08/19 06:38:14;;;;;;;;;;;;;;;;;;5022969;28;20463;-78
2023/08/19 06:40:47;;;;;;;6.43;2.30;;;;;;;;;;5021547;28;19947;-76
2023/08/19 06:43:13;;;;;;;7.28;2.60;;;;;;;;;;5028811;28;20065;-74
2023/08/19 06:45:39;;;;;;;7.43;2.75;;;;;;;;;;5021998;28;20113;-76
2023/08/19 06:48:07;;;;;;;6.05;2.75;;;;;;;;;;5022484;28;20072;-75
2023/08/19 06:50:33;;;;;;;10.00;3.25;;;;;;;;;;5028954;28;20104;-73
2023/08/19 06:53:04;;;;;;;7.93;2.97;;;;;;;;;;5021585;28;20119;-76
2023/08/19 06:55:33;;;;;;;5.78;2.85;;;;;;;;;;5029111;28;20036;-75
2023/08/19 06:58:08;;;;;;;27.77;3.00;;;;;;;;;;5021266;28;20033;-75
2023/08/19 07:00:35;;;;;;;9.32;3.80;;;;;;;;;;5022024;28;20318;-76
2023/08/19 07:03:02;;;;;;;8.98;3.38;;;;;;;;;;5021683;28;20037;-77
2023/08/19 07:05:32;;;;;;;9.75;3.05;;;;;;;;;;5022089;28;20025;-76
2023/08/19 07:08:00;;;;;;;9.57;3.47;;;;;;;;;;5037352;28;20462;-75
2023/08/19 07:10:26;;;;;;;4.95;2.55;;;;;;;;;;5037119;28;20052;-75
2023/08/19 07:12:54;;;;;;;5.57;2.95;;;;;;;;;;5040876;28;20025;-76
2023/08/19 07:15:21;;;;;;;10.23;3.03;;;;;;;;;;5026715;28;20033;-76
2023/08/19 07:17:48;;;;;;;5.43;2.55;;;;;;;;;;5024775;28;20025;-75
2023/08/19 07:20:23;;;;;;;6.82;2.67;;;;;;;;;;5024878;28;20041;-76
2023/08/19 07:22:51;;;;;;;4.18;2.78;;;;;;;;;;5032911;28;20103;-76
2023/08/19 07:25:17;;;;;;;9.02;3.13;;;;;;;;;;5024147;28;20111;-76
2023/08/19 07:27:44;;;;;;;5.07;2.70;;;;;;;;;;5025644;28;20109;-75
2023/08/19 07:30:10;;;;;;;5.70;3.00;;;;;;;;;;5024934;28;20044;-75
2023/08/19 07:32:37;;;;;;;6.20;2.90;;;;;;;;;;5025840;28;20065;-75
2023/08/19 07:35:04;;;;;;;8.43;2.78;;;;;;;;;;5025999;28;20124;-75
2023/08/19 07:37:30;;;;;;;5.35;2.53;;;;;;;;;;5025342;28;20029;-76
2023/08/19 07:39:57;;;;;;;8.07;2.58;;;;;;;;;;5033394;28;20040;-75
2023/08/19 07:42:23;;;;;;;5.47;3.00;;;;;;;;;;5025390;28;20029;-75
2023/08/19 07:44:49;;;;;;;7.25;2.60;;;;;;;;;;5033316;28;20037;-76
2023/08/19 07:47:15;;;;;;;9.38;2.80;;;;;;;;;;5025549;28;20041;-76
2023/08/19 07:49:41;;;;;;;9.95;2.70;;;;;;;;;;5025280;28;20044;-75
2023/08/19 07:52:07;;;;;;;6.68;3.17;;;;;;;;;;5023744;28;20092;-76
2023/08/19 07:54:33;;;;;;;4.40;2.60;;;;;;;;;;5026011;28;20021;-76
2023/08/19 07:56:59;;;;;;;12.00;2.90;;;;;;;;;;5029994;28;20108;-74
2023/08/19 07:59:27;;;;;;;7.43;2.38;;;;;;;;;;5026661;28;20034;-75
2023/08/19 08:01:57;;;;;;;9.30;3.38;;;;;;;;;;5024627;28;20029;-74
2023/08/19 08:04:25;;;;;;;4.70;2.53;;;;;;;;;;5026030;28;20086;-74
2023/08/19 08:06:52;;;;;;;5.50;2.75;;;;;;;;;;5027703;28;20099;-75
2023/08/19 08:09:19;;;;;;;5.38;2.80;;;;;;;;;;5028258;28;20044;-76
2023/08/19 08:11:45;;;;;;;4.70;2.72;;;;;;;;;;5023647;28;20033;-75
2023/08/19 08:14:11;;;;;;;9.15;3.17;;;;;;;;;;5040264;28;20362;-76
2023/08/19 08:16:38;;;;;;;4.82;2.20;;;;;;;;;;5024465;28;20053;-76
2023/08/19 08:19:04;;;;;;;6.72;2.95;;;;;;;;;;5032299;28;20438;-74
2023/08/19 08:21:30;;;;;;;6.10;2.95;;;;;;;;;;5025564;28;20651;-75
2023/08/19 08:23:58;;;;;;;6.47;3.08;;;;;;;;;;5040038;28;20041;-76
2023/08/19 08:26:26;;;;;;;7.60;3.13;;;;;;;;;;5039022;28;20033;-74
2023/08/19 08:28:55;;;;;;;6.10;2.72;;;;;;;;;;5024920;28;20037;-76
2023/08/19 08:31:21;;;;;;;6.68;2.78;;;;;;;;;;5024420;28;20088;-75
2023/08/19 08:33:47;;;;;;;5.47;2.75;;;;;;;;;;5024205;28;20108;-76
2023/08/19 08:36:13;;;;;;;5.30;3.22;;;;;;;;;;5031214;28;20033;-75
2023/08/19 08:38:39;;;;;;;3.78;2.70;;;;;;;;;;5023559;28;20060;-76
2023/08/19 08:41:07;;;;;;;6.28;2.85;;;;;;;;;;5024170;28;20038;-75
2023/08/19 08:43:37;;;;;;;8.23;2.72;;;;;;;;;;5023501;28;20230;-75
2023/08/19 08:46:04;;;;;;;6.43;2.40;;;;;;;;;;5023186;28;20041;-76
2023/08/19 08:48:32;;;;;;;4.82;2.78;;;;;;;;;;5038767;28;20068;-76
2023/08/19 08:50:58;;;;;;;9.90;3.28;;;;;;;;;;5039794;28;20022;-75
2023/08/19 08:53:27;;;;;;;11.07;4.10;;;;;;;;;;5023805;28;20026;-76
2023/08/19 08:55:53;;;;;;;7.72;3.22;;;;;;;;;;5024124;28;20029;-76
2023/08/19 08:58:19;;;;;;;9.82;3.00;;;;;;;;;;5030857;28;20374;-75
2023/08/19 09:00:46;;;;;;;9.02;3.50;;;;;;;;;;5024234;28;20033;-76
2023/08/19 09:03:12;;;;;;;8.30;3.33;;;;;;;;;;5032141;28;20095;-76
2023/08/19 09:05:41;;;;;;;3.80;2.72;;;;;;;;;;5023575;28;20036;-75
2023/08/19 09:08:11;;;;;;;5.30;3.08;;;;;;;;;;5022089;28;20167;-74
2023/08/19 09:10:38;;;;;;;9.30;3.47;;;;;;;;;;5023328;28;20095;-76
2023/08/19 09:13:07;;;;;;;7.07;3.28;;;;;;;;;;5023621;28;20017;-76
2023/08/19 09:15:35;;;;;;;5.95;3.22;;;;;;;;;;5024023;28;20560;-76
2023/08/19 09:18:02;;;;;;;9.40;3.63;;;;;;;;;;5022610;28;20063;-74
2023/08/19 09:20:28;;;;;;;4.78;3.20;;;;;;;;;;5030420;28;20034;-75
2023/08/19 09:23:04;;;;;;;6.65;2.97;;;;;;;;;;5021743;28;20147;-76
2023/08/19 09:25:31;;;;;;;8.10;2.90;;;;;;;;;;5022166;28;20029;-76
2023/08/19 09:27:59;;;;;;;7.72;2.90;;;;;;;;;;5023086;28;20112;-76
2023/08/19 09:30:35;;;;;;;9.60;3.97;;;;;;;;;;5030754;28;20033;-76
2023/08/19 09:33:02;;;;;;;8.68;4.35;;;;;;;;;;5023200;28;20649;-75
2023/08/19 09:35:36;;;;;;;8.35;3.72;;;;;;;;;;5021923;28;20108;-76
2023/08/19 09:38:06;;;;;;;7.85;3.17;;;;;;;;;;5022459;28;20034;-76
2023/08/19 09:40:32;;;;;;;5.60;2.92;;;;;;;;;;5023475;28;20053;-76
2023/08/19 09:42:58;;;;;;;6.40;3.42;;;;;;;;;;5037773;28;21652;-76
2023/08/19 09:45:26;;;;;;;7.03;3.15;;;;;;;;;;5022787;28;20030;-74
2023/08/19 09:47:55;;;;;;;7.65;3.72;;;;;;;;;;5022726;28;20022;-75
2023/08/19 09:50:22;;;;;;;5.72;3.15;;;;;;;;;;5038060;28;20120;-75
2023/08/19 09:52:59;;;;;;;5.80;3.08;;;;;;;;;;5022747;28;20025;-74
2023/08/19 09:55:29;;;;;;;17.27;3.53;;;;;;;;;;5022795;28;20107;-76
2023/08/19 09:57:56;;;;;;;9.57;4.00;;;;;;;;;;5022017;28;20036;-75
2023/08/19 10:00:25;;;;;;;10.25;4.13;;;;;;;;;;5030584;28;20037;-76
2023/08/19 10:02:51;;;;;;;15.77;4.07;;;;;;;;;;5023057;28;20034;-76
2023/08/19 10:05:19;;;;;;;9.93;3.97;;;;;;;;;;5021835;28;20127;-76
2023/08/19 10:07:52;;;;;;;6.97;4.30;;;;;;;;;;5022892;28;20057;-75
2023/08/19 10:10:18;;;;;;;3.92;3.28;;;;;;;;;;5022558;28;20044;-74
2023/08/19 10:12:44;;;;;;;11.48;4.15;;;;;;;;;;5022555;28;20041;-75
2023/08/19 10:15:12;;;;;;;6.18;3.45;;;;;;;;;;5038140;28;20442;-76
2023/08/19 10:17:41;;;;;;;7.53;3.40;;;;;;;;;;5021893;28;20068;-76
2023/08/19 10:20:11;;;;;;;7.30;3.45;;;;;;;;;;5021988;28;20040;-75
2023/08/19 10:22:41;;;;;;;6.53;3.75;;;;;;;;;;5038137;28;20434;-76
2023/08/19 10:25:10;;;;;;;8.88;4.25;;;;;;;;;;5029994;28;20207;-76
2023/08/19 10:27:37;;;;;;;6.65;3.42;;;;;;;;;;5022201;28;20029;-75
2023/08/19 10:30:21;;;;;;;7.13;3.38;;;;;;;;;;5037427;28;20040;-76
2023/08/19 10:32:47;;;;;;;7.38;4.15;;;;;;;;;;5037653;28;20026;-75
2023/08/19 10:35:14;;;;;;;7.93;3.67;;;;;;;;;;5023423;28;20111;-76
2023/08/19 10:37:43;;;;;;;6.55;4.13;;;;;;;;;;5023980;28;20025;-76
2023/08/19 10:40:14;;;;;;;7.05;3.53;;;;;;;;;;5025289;28;20029;-76
2023/08/19 10:42:40;;;;;;;19.10;5.10;;;;;;;;;;5039883;28;20057;-76
2023/08/19 10:45:17;;;;;;;7.65;3.65;;;;;;;;;;5024304;28;20061;-76
2023/08/19 10:47:43;;;;;;;12.13;3.92;;;;;;;;;;5025865;28;20034;-76
2023/08/19 10:50:09;;;;;;;10.93;4.25;;;;;;;;;;5025917;28;20102;-75
2023/08/19 10:52:40;;;;;;;6.75;3.83;;;;;;;;;;5041730;28;20129;-75
2023/08/19 10:55:06;;;;;;;7.30;4.30;;;;;;;;;;5016227;28;20041;-74
2023/08/19 10:57:38;;;;;;;7.75;3.95;;;;;;;;;;5026462;28;20033;-74
2023/08/19 11:00:07;;;;;;;8.15;3.58;;;;;;;;;;5025771;28;20029;-75
2023/08/19 11:02:33;;;;;;;7.38;3.70;;;;;;;;;;5025175;28;20120;-75
2023/08/19 11:05:03;;;;;;;5.78;3.72;;;;;;;;;;5033199;28;20598;-75
2023/08/19 11:07:29;;;;;;;5.88;3.72;;;;;;;;;;5024339;28;20135;-74
2023/08/19 11:09:57;;;;;;;8.05;3.50;;;;;;;;;;5025138;28;20041;-76
2023/08/19 11:12:26;;;;;;;12.52;4.68;;;;;;;;;;5026152;28;20067;-76
2023/08/19 11:14:55;;;;;;;14.05;5.03;;;;;;;;;;5025758;28;20025;-75
2023/08/19 11:17:27;;;;;;;7.15;4.20;;;;;;;;;;5025459;28;20037;-75
2023/08/19 11:19:53;;;;;;;6.95;3.78;;;;;;;;;;5040082;28;20396;-76
2023/08/19 11:22:21;;;;;;;7.45;4.30;;;;;;;;;;5023841;28;20033;-75
2023/08/19 11:24:47;;;;;;;9.35;4.28;;;;;;;;;;5024720;28;20038;-76
2023/08/19 11:27:13;;;;;;;14.05;4.38;;;;;;;;;;5025445;28;20049;-76
2023/08/19 11:29:45;;;;;;;12.07;4.43;;;;;;;;;;5024963;28;20053;-76
2023/08/19 11:32:20;;;;;;;7.03;3.92;;;;;;;;;;5024939;28;20029;-76
2023/08/19 11:34:46;;;;;;;6.55;4.05;;;;;;;;;;5025806;28;20038;-75
2023/08/19 11:37:12;;;;;;;10.18;4.32;;;;;;;;;;5032202;28;20025;-76
2023/08/19 11:39:40;;;;;;;11.07;4.53;;;;;;;;;;5040644;28;20045;-76
2023/08/19 11:42:09;;;;;;;8.23;4.85;;;;;;;;;;5032144;28;20072;-76
2023/08/19 11:44:35;;;;;;;7.95;4.85;;;;;;;;;;5025084;28;20624;-75
2023/08/19 11:47:01;;;;;;;9.07;4.30;;;;;;;;;;5024541;28;20033;-75
2023/08/19 11:49:32;;;;;;;8.25;3.97;;;;;;;;;;5024087;28;20068;-77
2023/08/19 11:52:00;;;;;;;7.82;5.13;;;;;;;;;;5024518;28;20092;-75
2023/08/19 11:54:26;;;;;;;11.07;4.55;;;;;;;;;;5023808;28;20026;-76
2023/08/19 11:56:52;;;;;;;12.60;4.70;;;;;;;;;;5024694;28;20123;-77
2023/08/19 11:59:19;;;;;;;6.43;4.70;;;;;;;;;;5026076;28;20034;-75
2023/08/19 12:01:48;;;;;;;9.65;4.90;;;;;;;;;;5032146;28;20030;-75
2023/08/19 12:04:17;;;;;;;4.72;4.13;;;;;;;;;;5025898;28;20041;-76
2023/08/19 12:06:44;;;;;;;10.32;4.78;;;;;;;;;;5026305;28;20033;-77
2023/08/19 12:09:10;;;;;;;10.88;5.03;;;;;;;;;;5029660;28;20132;-76
2023/08/19 12:11:36;;;;;;;10.10;5.55;;;;;;;;;;5042314;28;20091;-78
2023/08/19 12:14:06;;;;;;;8.93;5.18;;;;;;;;;;5024111;28;20068;-76
2023/08/19 12:16:34;;;;;;;9.32;5.38;;;;;;;;;;5024876;28;20040;-75
2023/08/19 12:19:00;;;;;;;8.18;4.95;;;;;;;;;;5039521;28;20453;-76
2023/08/19 12:21:27;;;;;;;12.13;6.22;;;;;;;;;;5040378;28;20072;-75
2023/08/19 12:23:55;;;;;;;10.45;6.10;;;;;;;;;;5024697;28;20037;-76
2023/08/19 12:26:21;;;;;;;9.95;5.53;;;;;;;;;;5024429;28;20088;-76
2023/08/19 12:28:50;;;;;;;9.13;5.65;;;;;;;;;;5024576;28;20029;-77
2023/08/19 12:31:16;;;;;;;10.88;5.90;;;;;;;;;;5031270;28;20057;-75
2023/08/19 12:33:42;;;;;;;11.35;6.15;;;;;;;;;;5024591;28;20117;-75
2023/08/19 12:36:08;;;;;;;9.90;6.32;;;;;;;;;;5024830;28;20041;-76
2023/08/19 12:38:34;;;;;;;12.55;6.50;;;;;;;;;;5023546;28;20122;-75
2023/08/19 12:41:01;;;;;;;12.60;7.55;;;;;;;;;;5024047;28;20729;-76
2023/08/19 12:43:27;;;;;;;10.65;5.93;;;;;;;;;;5031143;28;20037;-76
2023/08/19 12:45:54;;;;;;;9.32;6.20;;;;;;;;;;5024035;28;20028;-77
2023/08/19 12:48:20;;;;;;;14.30;6.63;;;;;;;;;;5023320;28;20037;-75
2023/08/19 12:50:46;;;;;;;12.63;7.13;;;;;;;;;;5023694;28;20045;-75
2023/08/19 12:53:14;;;;;;;10.02;6.30;;;;;;;;;;5023111;28;20117;-76
2023/08/19 12:55:40;;;;;;;15.25;7.20;;;;;;;;;;5023827;28;20484;-75
2023/08/19 12:58:06;;;;;;;10.77;6.60;;;;;;;;;;5023479;28;20037;-77
2023/08/19 13:00:32;;;;;;;11.38;6.53;;;;;;;;;;5023642;28;20025;-75
2023/08/19 13:02:58;;;;;;;10.52;7.30;;;;;;;;;;5023314;28;20057;-76
2023/08/19 13:05:24;;;;;;;10.45;6.60;;;;;;;;;;5023672;28;20033;-76
2023/08/19 13:07:53;;;;;;;9.65;6.18;;;;;;;;;;5031060;28;20091;-75
2023/08/19 13:10:19;;;;;;;11.15;6.80;;;;;;;;;;5022574;28;20091;-76
2023/08/19 13:12:49;;;;;;;10.90;6.40;;;;;;;;;;5023601;28;20072;-76
2023/08/19 13:15:17;;;;;;;8.75;5.85;;;;;;;;;;5039601;28;20025;-75
2023/08/19 13:17:43;;;;;;;13.25;7.68;;;;;;;;;;5023053;28;20030;-76
2023/08/19 13:20:10;;;;;;;8.25;5.55;;;;;;;;;;5022674;28;20547;-76
2023/08/19 13:22:35;;;;;;;10.15;6.57;;;;;;;;;;5038705;28;20033;-75
2023/08/19 13:25:07;;;;;;;11.73;6.03;;;;;;;;;;5038339;28;20039;-75
2023/08/19 13:27:33;;;;;;;7.22;5.97;;;;;;;;;;5030292;28;20036;-76
2023/08/19 13:29:59;;;;;;;7.15;6.32;;;;;;;;;;5038790;28;20042;-75
2023/08/19 13:32:25;;;;;;;12.10;8.27;;;;;;;;;;5023293;28;20021;-77
2023/08/19 13:34:52;;;;;;;12.32;8.52;;;;;;;;;;5038946;28;20025;-74
2023/08/19 13:37:18;;;;;;;7.80;6.70;;;;;;;;;;5022696;28;20040;-76
2023/08/19 13:39:49;;;;;;;11.70;7.60;;;;;;;;;;5023456;28;20029;-76
2023/08/19 13:42:15;;;;;;;10.77;8.43;;;;;;;;;;5022658;28;20034;-76
2023/08/19 13:44:40;;;;;;;12.40;8.27;;;;;;;;;;5038263;28;20029;-76
2023/08/19 13:47:06;;;;;;;11.10;8.10;;;;;;;;;;5022662;28;20421;-77
2023/08/19 13:49:32;;;;;;;13.88;9.20;;;;;;;;;;5022433;28;20033;-76
2023/08/19 13:51:58;;;;;;;13.48;10.88;;;;;;;;;;5021942;28;20075;-76
2023/08/19 13:54:24;;;;;;;16.83;11.02;;;;;;;;;;5022066;28;20839;-73
2023/08/19 13:56:51;;;;;;;15.30;10.65;;;;;;;;;;5023458;28;20060;-76
2023/08/19 13:59:17;;;;;;;11.07;9.88;;;;;;;;;;5022679;28;20025;-76
2023/08/19 14:01:46;;;;;;;16.45;9.25;;;;;;;;;;5025303;28;20039;-75
2023/08/19 14:04:12;;;;;;;15.13;9.70;;;;;;;;;;5023291;28;20919;-76
2023/08/19 14:06:38;;;;;;;11.10;8.18;;;;;;;;;;5022669;28;20105;-75
2023/08/19 14:09:04;;;;;;;11.00;8.45;;;;;;;;;;5031496;28;20207;-75
2023/08/19 14:11:30;;;;;;;11.50;7.43;;;;;;;;;;5023901;28;20033;-76
2023/08/19 14:13:56;;;;;;;8.10;7.03;;;;;;;;;;5038174;28;20080;-76
2023/08/19 14:16:25;;;;;;;9.23;7.75;;;;;;;;;;5025803;28;20047;-75
2023/08/19 14:18:50;;;;;;;15.35;8.30;;;;;;;;;;5034863;28;20029;-74
2023/08/19 14:21:19;;;;;;;15.25;7.78;;;;;;;;;;5033655;28;20067;-74
2023/08/19 14:23:45;;;;;;;19.33;8.48;;;;;;;;;;5025510;28;20029;-75
2023/08/19 14:26:11;;;;;;;20.20;11.25;;;;;;;;;;5025919;28;20927;-73
2023/08/19 14:28:37;;;;;;;17.45;12.88;;;;;;;;;;5041513;28;20190;-76
2023/08/19 14:31:03;;;;;;;15.07;10.07;;;;;;;;;;5026548;28;20243;-73
2023/08/19 14:33:29;;;;;;;15.23;11.32;;;;;;;;;;5025842;28;20085;-76
2023/08/19 14:35:55;;;;;;;22.30;14.63;;;;;;;;;;5022540;28;20029;-75
2023/08/19 14:38:21;;;;;;;25.02;16.85;;;;;;;;;;5037917;28;20445;-75